sensor_id;sensor_type;location;lat;lon;timestamp;P1;durP1;ratioP1;P2;durP2;ratioP2
22967;SDS011;11650;48.106;-1.696;2024-03-25T00:00:22;14.70;;;5.67;;
22967;SDS011;11650;48.106;-1.696;2024-03-25T00:02:50;20.83;;;6.03;;
22967;SDS011;11650;48.106;-1.696;2024-03-25T00:05:16;19.63;;;6.20;;
22967;SDS011;11650;48.106;-1.696;2024-03-25T00:07:48;14.63;;;4.70;;
22967;SDS011;11650;48.106;-1.696;2024-03-25T00:10:14;18.53;;;6.03;;
22967;SDS011;11650;48.106;-1.696;2024-03-25T00:12:40;17.47;;;5.80;;
22967;SDS011;11650;48.106;-1.696;2024-03-25T00:15:06;17.93;;;5.43;;
22967;SDS011;11650;48.106;-1.696;2024-03-25T00:17:32;18.17;;;5.37;;
22967;SDS011;11650;48.106;-1.696;2024-03-25T00:19:58;19.37;;;5.60;;
22967;SDS011;11650;48.106;-1.696;2024-03-25T00:22:24;12.30;;;4.73;;
22967;SDS011;11650;48.106;-1.696;2024-03-25T00:24:50;18.23;;;6.03;;
22967;SDS011;11650;48.106;-1.696;2024-03-25T00:27:16;18.50;;;7.00;;
22967;SDS011;11650;48.106;-1.696;2024-03-25T00:29:43;22.00;;;6.77;;
22967;SDS011;11650;48.106;-1.696;2024-03-25T00:32:09;25.27;;;8.90;;
22967;SDS011;11650;48.106;-1.696;2024-03-25T00:34:35;22.03;;;8.17;;
22967;SDS011;11650;48.106;-1.696;2024-03-25T00:37:01;23.67;;;10.67;;
22967;SDS011;11650;48.106;-1.696;2024-03-25T00:39:28;24.27;;;10.40;;
22967;SDS011;11650;48.106;-1.696;2024-03-25T00:41:57;32.77;;;13.00;;
22967;SDS011;11650;48.106;-1.696;2024-03-25T00:44:23;31.53;;;12.70;;
22967;SDS011;11650;48.106;-1.696;2024-03-25T00:46:48;32.50;;;13.23;;
22967;SDS011;11650;48.106;-1.696;2024-03-25T00:49:14;31.67;;;12.87;;
22967;SDS011;11650;48.106;-1.696;2024-03-25T00:51:40;25.50;;;11.57;;
22967;SDS011;11650;48.106;-1.696;2024-03-25T00:54:06;24.37;;;11.93;;
22967;SDS011;11650;48.106;-1.696;2024-03-25T00:56:32;23.20;;;11.30;;
22967;SDS011;11650;48.106;-1.696;2024-03-25T00:58:58;25.73;;;9.30;;
22967;SDS011;11650;48.106;-1.696;2024-03-25T01:01:27;23.33;;;10.03;;
22967;SDS011;11650;48.106;-1.696;2024-03-25T01:03:53;17.67;;;8.70;;
22967;SDS011;11650;48.106;-1.696;2024-03-25T01:06:19;24.03;;;8.43;;
22967;SDS011;11650;48.106;-1.696;2024-03-25T01:08:44;23.77;;;8.17;;
22967;SDS011;11650;48.106;-1.696;2024-03-25T01:11:10;20.00;;;7.97;;
22967;SDS011;11650;48.106;-1.696;2024-03-25T01:13:36;25.57;;;8.03;;
22967;SDS011;11650;48.106;-1.696;2024-03-25T01:16:01;20.43;;;8.63;;
22967;SDS011;11650;48.106;-1.696;2024-03-25T01:18:27;23.93;;;8.37;;
22967;SDS011;11650;48.106;-1.696;2024-03-25T01:20:52;15.33;;;7.07;;
22967;SDS011;11650;48.106;-1.696;2024-03-25T01:23:19;18.60;;;7.53;;
22967;SDS011;11650;48.106;-1.696;2024-03-25T01:25:45;17.83;;;7.23;;
22967;SDS011;11650;48.106;-1.696;2024-03-25T01:28:11;17.47;;;7.33;;
22967;SDS011;11650;48.106;-1.696;2024-03-25T01:30:36;25.93;;;7.40;;
22967;SDS011;11650;48.106;-1.696;2024-03-25T01:33:04;19.30;;;6.97;;
22967;SDS011;11650;48.106;-1.696;2024-03-25T01:35:30;21.03;;;7.13;;
22967;SDS011;11650;48.106;-1.696;2024-03-25T01:37:56;21.17;;;7.37;;
22967;SDS011;11650;48.106;-1.696;2024-03-25T01:40:22;23.30;;;7.13;;
22967;SDS011;11650;48.106;-1.696;2024-03-25T01:42:55;18.73;;;6.37;;
22967;SDS011;11650;48.106;-1.696;2024-03-25T01:45:21;18.83;;;6.00;;
22967;SDS011;11650;48.106;-1.696;2024-03-25T01:47:47;15.27;;;6.03;;
22967;SDS011;11650;48.106;-1.696;2024-03-25T01:50:12;19.60;;;5.87;;
22967;SDS011;11650;48.106;-1.696;2024-03-25T01:52:39;15.90;;;5.10;;
22967;SDS011;11650;48.106;-1.696;2024-03-25T01:55:05;16.60;;;5.03;;
22967;SDS011;11650;48.106;-1.696;2024-03-25T01:57:37;16.47;;;4.80;;
22967;SDS011;11650;48.106;-1.696;2024-03-25T02:00:03;16.80;;;5.03;;
22967;SDS011;11650;48.106;-1.696;2024-03-25T02:02:31;13.13;;;4.53;;
22967;SDS011;11650;48.106;-1.696;2024-03-25T02:04:58;16.17;;;5.10;;
22967;SDS011;11650;48.106;-1.696;2024-03-25T02:07:25;17.20;;;5.00;;
22967;SDS011;11650;48.106;-1.696;2024-03-25T02:09:52;14.87;;;4.63;;
22967;SDS011;11650;48.106;-1.696;2024-03-25T02:12:18;15.30;;;4.93;;
22967;SDS011;11650;48.106;-1.696;2024-03-25T02:14:44;16.53;;;5.47;;
22967;SDS011;11650;48.106;-1.696;2024-03-25T02:17:10;20.20;;;5.67;;
22967;SDS011;11650;48.106;-1.696;2024-03-25T02:19:37;16.60;;;5.17;;
22967;SDS011;11650;48.106;-1.696;2024-03-25T02:22:04;15.17;;;4.33;;
22967;SDS011;11650;48.106;-1.696;2024-03-25T02:24:29;17.47;;;4.73;;
22967;SDS011;11650;48.106;-1.696;2024-03-25T02:26:58;18.37;;;5.37;;
22967;SDS011;11650;48.106;-1.696;2024-03-25T02:29:32;15.57;;;5.03;;
22967;SDS011;11650;48.106;-1.696;2024-03-25T02:32:00;15.67;;;5.30;;
22967;SDS011;11650;48.106;-1.696;2024-03-25T02:34:26;21.03;;;5.90;;
22967;SDS011;11650;48.106;-1.696;2024-03-25T02:36:51;17.97;;;5.20;;
22967;SDS011;11650;48.106;-1.696;2024-03-25T02:39:18;15.60;;;5.23;;
22967;SDS011;11650;48.106;-1.696;2024-03-25T02:41:45;16.70;;;5.07;;
22967;SDS011;11650;48.106;-1.696;2024-03-25T02:44:11;20.53;;;5.27;;
22967;SDS011;11650;48.106;-1.696;2024-03-25T02:46:39;19.77;;;5.10;;
22967;SDS011;11650;48.106;-1.696;2024-03-25T02:49:05;16.10;;;5.17;;
22967;SDS011;11650;48.106;-1.696;2024-03-25T02:51:31;15.20;;;5.27;;
22967;SDS011;11650;48.106;-1.696;2024-03-25T02:53:56;15.03;;;5.30;;
22967;SDS011;11650;48.106;-1.696;2024-03-25T02:56:22;14.70;;;5.13;;
22967;SDS011;11650;48.106;-1.696;2024-03-25T02:58:47;19.27;;;5.43;;
22967;SDS011;11650;48.106;-1.696;2024-03-25T03:01:15;14.10;;;4.70;;
22967;SDS011;11650;48.106;-1.696;2024-03-25T03:03:41;13.87;;;5.40;;
22967;SDS011;11650;48.106;-1.696;2024-03-25T03:06:06;15.27;;;4.97;;
22967;SDS011;11650;48.106;-1.696;2024-03-25T03:08:32;14.00;;;5.33;;
22967;SDS011;11650;48.106;-1.696;2024-03-25T03:10:58;10.17;;;5.07;;
22967;SDS011;11650;48.106;-1.696;2024-03-25T03:13:23;13.67;;;5.10;;
22967;SDS011;11650;48.106;-1.696;2024-03-25T03:15:49;19.13;;;5.20;;
22967;SDS011;11650;48.106;-1.696;2024-03-25T03:18:15;12.77;;;4.87;;
22967;SDS011;11650;48.106;-1.696;2024-03-25T03:20:40;15.77;;;4.87;;
22967;SDS011;11650;48.106;-1.696;2024-03-25T03:23:06;15.07;;;5.03;;
22967;SDS011;11650;48.106;-1.696;2024-03-25T03:25:31;14.63;;;5.07;;
22967;SDS011;11650;48.106;-1.696;2024-03-25T03:27:57;14.60;;;4.80;;
22967;SDS011;11650;48.106;-1.696;2024-03-25T03:30:22;18.50;;;5.03;;
22967;SDS011;11650;48.106;-1.696;2024-03-25T03:32:48;18.60;;;5.40;;
22967;SDS011;11650;48.106;-1.696;2024-03-25T03:35:14;21.83;;;6.07;;
22967;SDS011;11650;48.106;-1.696;2024-03-25T03:37:39;25.13;;;6.20;;
22967;SDS011;11650;48.106;-1.696;2024-03-25T03:40:05;17.70;;;6.23;;
22967;SDS011;11650;48.106;-1.696;2024-03-25T03:42:32;17.23;;;5.60;;
22967;SDS011;11650;48.106;-1.696;2024-03-25T03:44:58;17.73;;;6.23;;
22967;SDS011;11650;48.106;-1.696;2024-03-25T03:47:23;22.60;;;6.63;;
22967;SDS011;11650;48.106;-1.696;2024-03-25T03:49:49;20.77;;;6.73;;
22967;SDS011;11650;48.106;-1.696;2024-03-25T03:52:14;19.87;;;5.80;;
22967;SDS011;11650;48.106;-1.696;2024-03-25T03:54:40;20.50;;;6.47;;
22967;SDS011;11650;48.106;-1.696;2024-03-25T03:57:06;21.33;;;6.67;;
22967;SDS011;11650;48.106;-1.696;2024-03-25T03:59:31;26.87;;;7.77;;
22967;SDS011;11650;48.106;-1.696;2024-03-25T04:01:57;24.27;;;6.80;;
22967;SDS011;11650;48.106;-1.696;2024-03-25T04:04:22;26.43;;;7.23;;
22967;SDS011;11650;48.106;-1.696;2024-03-25T04:06:48;32.63;;;8.10;;
22967;SDS011;11650;48.106;-1.696;2024-03-25T04:09:14;23.03;;;8.20;;
22967;SDS011;11650;48.106;-1.696;2024-03-25T04:11:40;32.93;;;9.13;;
22967;SDS011;11650;48.106;-1.696;2024-03-25T04:14:05;24.53;;;8.57;;
22967;SDS011;11650;48.106;-1.696;2024-03-25T04:16:31;25.53;;;8.40;;
22967;SDS011;11650;48.106;-1.696;2024-03-25T04:18:57;37.73;;;9.30;;
22967;SDS011;11650;48.106;-1.696;2024-03-25T04:21:23;33.67;;;9.47;;
22967;SDS011;11650;48.106;-1.696;2024-03-25T04:23:48;43.60;;;9.83;;
22967;SDS011;11650;48.106;-1.696;2024-03-25T04:26:17;31.70;;;9.20;;
22967;SDS011;11650;48.106;-1.696;2024-03-25T04:28:43;42.53;;;9.67;;
22967;SDS011;11650;48.106;-1.696;2024-03-25T04:31:09;37.27;;;8.90;;
22967;SDS011;11650;48.106;-1.696;2024-03-25T04:33:35;32.00;;;9.40;;
22967;SDS011;11650;48.106;-1.696;2024-03-25T04:36:00;28.27;;;8.90;;
22967;SDS011;11650;48.106;-1.696;2024-03-25T04:38:26;24.00;;;8.20;;
22967;SDS011;11650;48.106;-1.696;2024-03-25T04:40:51;27.13;;;8.80;;
22967;SDS011;11650;48.106;-1.696;2024-03-25T04:43:17;33.47;;;10.10;;
22967;SDS011;11650;48.106;-1.696;2024-03-25T04:45:43;27.60;;;9.17;;
22967;SDS011;11650;48.106;-1.696;2024-03-25T04:48:08;27.90;;;9.13;;
22967;SDS011;11650;48.106;-1.696;2024-03-25T04:50:35;34.80;;;9.73;;
22967;SDS011;11650;48.106;-1.696;2024-03-25T04:53:00;26.90;;;9.13;;
22967;SDS011;11650;48.106;-1.696;2024-03-25T04:55:26;32.87;;;9.90;;
22967;SDS011;11650;48.106;-1.696;2024-03-25T04:57:52;38.30;;;10.17;;
22967;SDS011;11650;48.106;-1.696;2024-03-25T05:00:18;31.07;;;10.07;;
22967;SDS011;11650;48.106;-1.696;2024-03-25T05:02:43;38.53;;;10.03;;
22967;SDS011;11650;48.106;-1.696;2024-03-25T05:05:09;39.10;;;11.03;;
22967;SDS011;11650;48.106;-1.696;2024-03-25T05:07:35;34.87;;;10.67;;
22967;SDS011;11650;48.106;-1.696;2024-03-25T05:10:01;30.87;;;10.87;;
22967;SDS011;11650;48.106;-1.696;2024-03-25T05:12:26;35.63;;;11.80;;
22967;SDS011;11650;48.106;-1.696;2024-03-25T05:14:55;38.70;;;11.40;;
22967;SDS011;11650;48.106;-1.696;2024-03-25T05:17:21;33.93;;;10.40;;
22967;SDS011;11650;48.106;-1.696;2024-03-25T05:19:47;35.67;;;10.53;;
22967;SDS011;11650;48.106;-1.696;2024-03-25T05:22:12;34.70;;;10.10;;
22967;SDS011;11650;48.106;-1.696;2024-03-25T05:24:38;37.67;;;10.23;;
22967;SDS011;11650;48.106;-1.696;2024-03-25T05:27:04;31.40;;;9.43;;
22967;SDS011;11650;48.106;-1.696;2024-03-25T05:29:30;26.80;;;8.50;;
22967;SDS011;11650;48.106;-1.696;2024-03-25T05:31:56;30.00;;;8.33;;
22967;SDS011;11650;48.106;-1.696;2024-03-25T05:34:26;23.40;;;7.10;;
22967;SDS011;11650;48.106;-1.696;2024-03-25T05:36:53;26.43;;;7.47;;
22967;SDS011;11650;48.106;-1.696;2024-03-25T05:39:19;31.93;;;7.63;;
22967;SDS011;11650;48.106;-1.696;2024-03-25T05:41:45;22.93;;;7.27;;
22967;SDS011;11650;48.106;-1.696;2024-03-25T05:44:11;20.57;;;7.40;;
22967;SDS011;11650;48.106;-1.696;2024-03-25T05:46:36;21.30;;;7.07;;
22967;SDS011;11650;48.106;-1.696;2024-03-25T05:49:03;23.33;;;7.73;;
22967;SDS011;11650;48.106;-1.696;2024-03-25T05:51:29;17.20;;;7.23;;
22967;SDS011;11650;48.106;-1.696;2024-03-25T05:53:55;25.97;;;7.43;;
22967;SDS011;11650;48.106;-1.696;2024-03-25T05:56:21;23.27;;;6.87;;
22967;SDS011;11650;48.106;-1.696;2024-03-25T05:58:47;21.00;;;6.50;;
22967;SDS011;11650;48.106;-1.696;2024-03-25T06:01:12;21.83;;;6.43;;
22967;SDS011;11650;48.106;-1.696;2024-03-25T06:03:38;22.37;;;7.00;;
22967;SDS011;11650;48.106;-1.696;2024-03-25T06:06:04;19.80;;;6.33;;
22967;SDS011;11650;48.106;-1.696;2024-03-25T06:08:30;22.80;;;6.53;;
22967;SDS011;11650;48.106;-1.696;2024-03-25T06:11:00;17.73;;;6.23;;
22967;SDS011;11650;48.106;-1.696;2024-03-25T06:13:26;19.93;;;6.10;;
22967;SDS011;11650;48.106;-1.696;2024-03-25T06:15:52;21.83;;;6.30;;
22967;SDS011;11650;48.106;-1.696;2024-03-25T06:18:18;24.03;;;6.27;;
22967;SDS011;11650;48.106;-1.696;2024-03-25T06:20:44;16.80;;;5.70;;
22967;SDS011;11650;48.106;-1.696;2024-03-25T06:23:10;18.77;;;5.70;;
22967;SDS011;11650;48.106;-1.696;2024-03-25T06:25:46;22.70;;;5.97;;
22967;SDS011;11650;48.106;-1.696;2024-03-25T06:28:11;16.00;;;5.20;;
22967;SDS011;11650;48.106;-1.696;2024-03-25T06:30:37;12.47;;;4.80;;
22967;SDS011;11650;48.106;-1.696;2024-03-25T06:33:21;17.87;;;5.30;;
22967;SDS011;11650;48.106;-1.696;2024-03-25T06:36:06;19.57;;;5.70;;
22967;SDS011;11650;48.106;-1.696;2024-03-25T06:38:32;18.77;;;5.10;;
22967;SDS011;11650;48.106;-1.696;2024-03-25T06:40:57;15.03;;;5.10;;
22967;SDS011;11650;48.106;-1.696;2024-03-25T06:43:23;17.80;;;5.53;;
22967;SDS011;11650;48.106;-1.696;2024-03-25T06:45:49;19.47;;;5.23;;
22967;SDS011;11650;48.106;-1.696;2024-03-25T06:48:14;25.40;;;5.23;;
22967;SDS011;11650;48.106;-1.696;2024-03-25T06:50:40;20.93;;;5.53;;
22967;SDS011;11650;48.106;-1.696;2024-03-25T06:53:06;14.67;;;6.03;;
22967;SDS011;11650;48.106;-1.696;2024-03-25T06:55:31;18.80;;;5.23;;
22967;SDS011;11650;48.106;-1.696;2024-03-25T06:57:57;18.43;;;5.37;;
22967;SDS011;11650;48.106;-1.696;2024-03-25T07:00:22;19.70;;;4.77;;
22967;SDS011;11650;48.106;-1.696;2024-03-25T07:02:48;17.97;;;6.07;;
22967;SDS011;11650;48.106;-1.696;2024-03-25T07:05:14;16.77;;;5.00;;
22967;SDS011;11650;48.106;-1.696;2024-03-25T07:07:40;18.27;;;4.73;;
22967;SDS011;11650;48.106;-1.696;2024-03-25T07:10:06;20.93;;;5.00;;
22967;SDS011;11650;48.106;-1.696;2024-03-25T07:12:32;14.33;;;4.60;;
22967;SDS011;11650;48.106;-1.696;2024-03-25T07:14:57;12.20;;;4.37;;
22967;SDS011;11650;48.106;-1.696;2024-03-25T07:17:23;15.90;;;4.60;;
22967;SDS011;11650;48.106;-1.696;2024-03-25T07:19:48;12.70;;;4.23;;
22967;SDS011;11650;48.106;-1.696;2024-03-25T07:22:14;12.97;;;4.23;;
22967;SDS011;11650;48.106;-1.696;2024-03-25T07:24:40;21.17;;;5.37;;
22967;SDS011;11650;48.106;-1.696;2024-03-25T07:27:05;18.47;;;4.83;;
22967;SDS011;11650;48.106;-1.696;2024-03-25T07:29:32;15.00;;;4.27;;
22967;SDS011;11650;48.106;-1.696;2024-03-25T07:31:58;20.67;;;4.57;;
22967;SDS011;11650;48.106;-1.696;2024-03-25T07:34:23;15.70;;;5.07;;
22967;SDS011;11650;48.106;-1.696;2024-03-25T07:36:49;10.97;;;3.83;;
22967;SDS011;11650;48.106;-1.696;2024-03-25T07:39:15;12.47;;;4.03;;
22967;SDS011;11650;48.106;-1.696;2024-03-25T07:41:41;11.87;;;4.33;;
22967;SDS011;11650;48.106;-1.696;2024-03-25T07:44:06;15.63;;;4.30;;
22967;SDS011;11650;48.106;-1.696;2024-03-25T07:46:32;13.03;;;4.23;;
22967;SDS011;11650;48.106;-1.696;2024-03-25T07:48:58;11.77;;;4.50;;
22967;SDS011;11650;48.106;-1.696;2024-03-25T07:51:23;15.77;;;4.30;;
22967;SDS011;11650;48.106;-1.696;2024-03-25T07:53:49;12.40;;;4.10;;
22967;SDS011;11650;48.106;-1.696;2024-03-25T07:56:15;18.37;;;4.83;;
22967;SDS011;11650;48.106;-1.696;2024-03-25T07:58:43;16.00;;;4.30;;
22967;SDS011;11650;48.106;-1.696;2024-03-25T08:01:08;19.53;;;3.97;;
22967;SDS011;11650;48.106;-1.696;2024-03-25T08:03:34;14.40;;;4.00;;
22967;SDS011;11650;48.106;-1.696;2024-03-25T08:05:59;13.10;;;3.73;;
22967;SDS011;11650;48.106;-1.696;2024-03-25T08:08:25;15.97;;;4.40;;
22967;SDS011;11650;48.106;-1.696;2024-03-25T08:10:51;12.40;;;4.20;;
22967;SDS011;11650;48.106;-1.696;2024-03-25T08:13:21;12.83;;;4.10;;
22967;SDS011;11650;48.106;-1.696;2024-03-25T08:15:46;19.27;;;4.13;;
22967;SDS011;11650;48.106;-1.696;2024-03-25T08:18:12;13.90;;;3.97;;
22967;SDS011;11650;48.106;-1.696;2024-03-25T08:20:38;15.43;;;4.00;;
22967;SDS011;11650;48.106;-1.696;2024-03-25T08:23:03;15.43;;;4.13;;
22967;SDS011;11650;48.106;-1.696;2024-03-25T08:25:30;11.63;;;3.80;;
22967;SDS011;11650;48.106;-1.696;2024-03-25T08:27:56;16.67;;;3.70;;
22967;SDS011;11650;48.106;-1.696;2024-03-25T08:30:22;15.90;;;3.70;;
22967;SDS011;11650;48.106;-1.696;2024-03-25T08:32:48;13.47;;;3.97;;
22967;SDS011;11650;48.106;-1.696;2024-03-25T08:35:13;10.63;;;3.30;;
22967;SDS011;11650;48.106;-1.696;2024-03-25T08:37:39;12.60;;;3.83;;
22967;SDS011;11650;48.106;-1.696;2024-03-25T08:40:05;11.80;;;3.60;;
22967;SDS011;11650;48.106;-1.696;2024-03-25T08:42:31;13.13;;;3.40;;
22967;SDS011;11650;48.106;-1.696;2024-03-25T08:44:57;15.90;;;3.77;;
22967;SDS011;11650;48.106;-1.696;2024-03-25T08:47:24;13.10;;;3.37;;
22967;SDS011;11650;48.106;-1.696;2024-03-25T08:49:50;12.23;;;3.40;;
22967;SDS011;11650;48.106;-1.696;2024-03-25T08:52:15;11.97;;;3.80;;
22967;SDS011;11650;48.106;-1.696;2024-03-25T08:54:41;12.50;;;3.07;;
22967;SDS011;11650;48.106;-1.696;2024-03-25T08:57:07;15.93;;;3.20;;
22967;SDS011;11650;48.106;-1.696;2024-03-25T08:59:32;11.93;;;3.40;;
22967;SDS011;11650;48.106;-1.696;2024-03-25T09:01:58;15.03;;;3.30;;
22967;SDS011;11650;48.106;-1.696;2024-03-25T09:04:23;8.33;;;2.70;;
22967;SDS011;11650;48.106;-1.696;2024-03-25T09:06:49;13.83;;;3.10;;
22967;SDS011;11650;48.106;-1.696;2024-03-25T09:09:15;12.10;;;2.90;;
22967;SDS011;11650;48.106;-1.696;2024-03-25T09:11:59;9.10;;;2.33;;
22967;SDS011;11650;48.106;-1.696;2024-03-25T09:14:25;10.97;;;2.73;;
22967;SDS011;11650;48.106;-1.696;2024-03-25T09:16:50;19.07;;;8.70;;
22967;SDS011;11650;48.106;-1.696;2024-03-25T09:19:16;12.73;;;3.90;;
22967;SDS011;11650;48.106;-1.696;2024-03-25T09:21:42;7.33;;;2.40;;
22967;SDS011;11650;48.106;-1.696;2024-03-25T09:24:07;7.47;;;2.37;;
22967;SDS011;11650;48.106;-1.696;2024-03-25T09:26:33;10.83;;;3.03;;
22967;SDS011;11650;48.106;-1.696;2024-03-25T09:28:59;8.13;;;2.27;;
22967;SDS011;11650;48.106;-1.696;2024-03-25T09:31:24;11.63;;;2.67;;
22967;SDS011;11650;48.106;-1.696;2024-03-25T09:33:50;7.50;;;2.20;;
22967;SDS011;11650;48.106;-1.696;2024-03-25T09:36:16;7.70;;;2.30;;
22967;SDS011;11650;48.106;-1.696;2024-03-25T09:38:41;6.37;;;2.17;;
22967;SDS011;11650;48.106;-1.696;2024-03-25T09:41:08;7.93;;;2.10;;
22967;SDS011;11650;48.106;-1.696;2024-03-25T09:43:42;10.33;;;2.63;;
22967;SDS011;11650;48.106;-1.696;2024-03-25T09:46:13;7.63;;;1.77;;
22967;SDS011;11650;48.106;-1.696;2024-03-25T09:48:39;9.10;;;2.10;;
22967;SDS011;11650;48.106;-1.696;2024-03-25T09:51:05;7.03;;;2.00;;
22967;SDS011;11650;48.106;-1.696;2024-03-25T09:53:32;6.50;;;1.60;;
22967;SDS011;11650;48.106;-1.696;2024-03-25T09:55:57;7.80;;;1.80;;
22967;SDS011;11650;48.106;-1.696;2024-03-25T09:58:24;7.23;;;1.97;;
22967;SDS011;11650;48.106;-1.696;2024-03-25T10:00:51;9.63;;;2.17;;
22967;SDS011;11650;48.106;-1.696;2024-03-25T10:03:17;8.73;;;1.83;;
22967;SDS011;11650;48.106;-1.696;2024-03-25T10:05:42;7.10;;;2.10;;
22967;SDS011;11650;48.106;-1.696;2024-03-25T10:08:08;9.33;;;2.17;;
22967;SDS011;11650;48.106;-1.696;2024-03-25T10:10:34;8.17;;;2.00;;
22967;SDS011;11650;48.106;-1.696;2024-03-25T10:13:02;9.50;;;1.90;;
22967;SDS011;11650;48.106;-1.696;2024-03-25T10:15:32;6.77;;;2.30;;
22967;SDS011;11650;48.106;-1.696;2024-03-25T10:17:57;9.77;;;2.00;;
22967;SDS011;11650;48.106;-1.696;2024-03-25T10:20:23;7.20;;;2.03;;
22967;SDS011;11650;48.106;-1.696;2024-03-25T10:22:50;7.17;;;2.10;;
22967;SDS011;11650;48.106;-1.696;2024-03-25T10:25:26;5.37;;;2.03;;
22967;SDS011;11650;48.106;-1.696;2024-03-25T10:27:53;6.83;;;1.80;;
22967;SDS011;11650;48.106;-1.696;2024-03-25T10:30:22;6.37;;;1.67;;
22967;SDS011;11650;48.106;-1.696;2024-03-25T10:33:00;6.23;;;1.83;;
22967;SDS011;11650;48.106;-1.696;2024-03-25T10:35:28;7.07;;;1.90;;
22967;SDS011;11650;48.106;-1.696;2024-03-25T10:37:55;7.20;;;2.10;;
22967;SDS011;11650;48.106;-1.696;2024-03-25T10:40:25;7.23;;;2.10;;
22967;SDS011;11650;48.106;-1.696;2024-03-25T10:42:55;9.00;;;2.37;;
22967;SDS011;11650;48.106;-1.696;2024-03-25T10:45:27;9.17;;;1.90;;
22967;SDS011;11650;48.106;-1.696;2024-03-25T10:47:58;8.30;;;2.00;;
22967;SDS011;11650;48.106;-1.696;2024-03-25T10:50:33;7.77;;;2.00;;
22967;SDS011;11650;48.106;-1.696;2024-03-25T10:53:00;7.93;;;2.23;;
22967;SDS011;11650;48.106;-1.696;2024-03-25T10:55:29;11.93;;;2.47;;
22967;SDS011;11650;48.106;-1.696;2024-03-25T10:57:56;10.27;;;2.37;;
22967;SDS011;11650;48.106;-1.696;2024-03-25T11:00:22;9.37;;;2.10;;
22967;SDS011;11650;48.106;-1.696;2024-03-25T11:02:48;9.77;;;2.33;;
22967;SDS011;11650;48.106;-1.696;2024-03-25T11:05:14;6.03;;;2.00;;
22967;SDS011;11650;48.106;-1.696;2024-03-25T11:07:41;5.03;;;1.77;;
22967;SDS011;11650;48.106;-1.696;2024-03-25T11:10:08;9.10;;;2.10;;
22967;SDS011;11650;48.106;-1.696;2024-03-25T11:12:37;8.73;;;1.97;;
22967;SDS011;11650;48.106;-1.696;2024-03-25T11:15:05;6.37;;;1.80;;
22967;SDS011;11650;48.106;-1.696;2024-03-25T11:17:35;4.87;;;1.60;;
22967;SDS011;11650;48.106;-1.696;2024-03-25T11:22:51;8.30;;;1.57;;
22967;SDS011;11650;48.106;-1.696;2024-03-25T11:25:19;9.50;;;2.00;;
22967;SDS011;11650;48.106;-1.696;2024-03-25T11:27:46;7.37;;;2.03;;
22967;SDS011;11650;48.106;-1.696;2024-03-25T11:30:13;4.27;;;1.50;;
22967;SDS011;11650;48.106;-1.696;2024-03-25T11:35:12;4.53;;;1.70;;
22967;SDS011;11650;48.106;-1.696;2024-03-25T11:37:41;3.97;;;1.83;;
22967;SDS011;11650;48.106;-1.696;2024-03-25T11:40:11;9.07;;;1.83;;
22967;SDS011;11650;48.106;-1.696;2024-03-25T11:42:39;5.30;;;1.53;;
22967;SDS011;11650;48.106;-1.696;2024-03-25T11:45:06;5.27;;;1.77;;
22967;SDS011;11650;48.106;-1.696;2024-03-25T11:47:33;7.67;;;1.57;;
22967;SDS011;11650;48.106;-1.696;2024-03-25T11:49:58;10.40;;;1.93;;
22967;SDS011;11650;48.106;-1.696;2024-03-25T11:52:29;5.23;;;1.40;;
22967;SDS011;11650;48.106;-1.696;2024-03-25T11:54:55;8.00;;;1.57;;
22967;SDS011;11650;48.106;-1.696;2024-03-25T11:57:21;10.00;;;2.00;;
22967;SDS011;11650;48.106;-1.696;2024-03-25T11:59:47;5.83;;;1.63;;
22967;SDS011;11650;48.106;-1.696;2024-03-25T12:02:16;10.47;;;1.93;;
22967;SDS011;11650;48.106;-1.696;2024-03-25T12:04:43;5.60;;;1.50;;
22967;SDS011;11650;48.106;-1.696;2024-03-25T12:07:12;7.83;;;1.77;;
22967;SDS011;11650;48.106;-1.696;2024-03-25T12:09:38;5.20;;;1.57;;
22967;SDS011;11650;48.106;-1.696;2024-03-25T12:12:23;4.37;;;1.57;;
22967;SDS011;11650;48.106;-1.696;2024-03-25T12:14:49;5.17;;;1.27;;
22967;SDS011;11650;48.106;-1.696;2024-03-25T12:17:16;3.10;;;1.50;;
22967;SDS011;11650;48.106;-1.696;2024-03-25T12:19:42;4.23;;;1.43;;
22967;SDS011;11650;48.106;-1.696;2024-03-25T12:22:08;8.30;;;1.50;;
22967;SDS011;11650;48.106;-1.696;2024-03-25T12:24:33;3.90;;;1.30;;
22967;SDS011;11650;48.106;-1.696;2024-03-25T12:27:00;4.90;;;1.40;;
22967;SDS011;11650;48.106;-1.696;2024-03-25T12:29:26;5.30;;;1.60;;
22967;SDS011;11650;48.106;-1.696;2024-03-25T12:31:55;8.33;;;1.90;;
22967;SDS011;11650;48.106;-1.696;2024-03-25T12:34:21;7.87;;;1.93;;
22967;SDS011;11650;48.106;-1.696;2024-03-25T12:36:50;4.37;;;1.57;;
22967;SDS011;11650;48.106;-1.696;2024-03-25T12:39:18;5.77;;;1.83;;
22967;SDS011;11650;48.106;-1.696;2024-03-25T12:41:44;6.33;;;1.90;;
22967;SDS011;11650;48.106;-1.696;2024-03-25T12:44:12;7.20;;;1.97;;
22967;SDS011;11650;48.106;-1.696;2024-03-25T12:46:38;7.70;;;2.33;;
22967;SDS011;11650;48.106;-1.696;2024-03-25T12:49:04;7.63;;;2.70;;
22967;SDS011;11650;48.106;-1.696;2024-03-25T12:51:31;7.47;;;2.60;;
22967;SDS011;11650;48.106;-1.696;2024-03-25T12:53:57;7.47;;;2.20;;
22967;SDS011;11650;48.106;-1.696;2024-03-25T12:56:23;6.43;;;2.17;;
22967;SDS011;11650;48.106;-1.696;2024-03-25T12:58:49;10.00;;;2.40;;
22967;SDS011;11650;48.106;-1.696;2024-03-25T13:01:15;7.30;;;2.23;;
22967;SDS011;11650;48.106;-1.696;2024-03-25T13:03:41;6.47;;;1.90;;
22967;SDS011;11650;48.106;-1.696;2024-03-25T13:06:07;8.30;;;2.17;;
22967;SDS011;11650;48.106;-1.696;2024-03-25T13:08:33;6.37;;;1.60;;
22967;SDS011;11650;48.106;-1.696;2024-03-25T13:10:58;4.63;;;1.80;;
22967;SDS011;11650;48.106;-1.696;2024-03-25T13:13:25;10.50;;;2.20;;
22967;SDS011;11650;48.106;-1.696;2024-03-25T13:15:50;11.87;;;2.93;;
22967;SDS011;11650;48.106;-1.696;2024-03-25T13:18:16;6.73;;;1.93;;
22967;SDS011;11650;48.106;-1.696;2024-03-25T13:20:43;7.30;;;2.00;;
22967;SDS011;11650;48.106;-1.696;2024-03-25T13:23:09;7.03;;;1.67;;
22967;SDS011;11650;48.106;-1.696;2024-03-25T13:25:36;6.47;;;2.23;;
22967;SDS011;11650;48.106;-1.696;2024-03-25T13:28:01;6.37;;;2.20;;
22967;SDS011;11650;48.106;-1.696;2024-03-25T13:30:27;6.43;;;1.83;;
22967;SDS011;11650;48.106;-1.696;2024-03-25T13:32:55;6.93;;;1.70;;
22967;SDS011;11650;48.106;-1.696;2024-03-25T13:35:20;4.77;;;1.80;;
22967;SDS011;11650;48.106;-1.696;2024-03-25T13:37:46;7.43;;;1.77;;
22967;SDS011;11650;48.106;-1.696;2024-03-25T13:40:12;4.07;;;1.40;;
22967;SDS011;11650;48.106;-1.696;2024-03-25T13:42:38;4.73;;;1.90;;
22967;SDS011;11650;48.106;-1.696;2024-03-25T13:45:04;7.13;;;2.10;;
22967;SDS011;11650;48.106;-1.696;2024-03-25T13:47:30;4.80;;;1.90;;
22967;SDS011;11650;48.106;-1.696;2024-03-25T13:50:05;5.40;;;2.13;;
22967;SDS011;11650;48.106;-1.696;2024-03-25T13:52:36;6.30;;;2.17;;
22967;SDS011;11650;48.106;-1.696;2024-03-25T13:55:02;6.87;;;1.87;;
22967;SDS011;11650;48.106;-1.696;2024-03-25T13:57:28;7.97;;;2.20;;
22967;SDS011;11650;48.106;-1.696;2024-03-25T13:59:53;7.17;;;2.23;;
22967;SDS011;11650;48.106;-1.696;2024-03-25T14:02:19;5.37;;;1.93;;
22967;SDS011;11650;48.106;-1.696;2024-03-25T14:04:44;6.90;;;2.03;;
22967;SDS011;11650;48.106;-1.696;2024-03-25T14:07:10;5.80;;;2.33;;
22967;SDS011;11650;48.106;-1.696;2024-03-25T14:09:36;6.70;;;2.13;;
22967;SDS011;11650;48.106;-1.696;2024-03-25T14:12:02;5.80;;;2.33;;
22967;SDS011;11650;48.106;-1.696;2024-03-25T14:14:28;7.60;;;2.30;;
22967;SDS011;11650;48.106;-1.696;2024-03-25T14:16:54;8.50;;;1.87;;
22967;SDS011;11650;48.106;-1.696;2024-03-25T14:19:20;8.17;;;1.90;;
22967;SDS011;11650;48.106;-1.696;2024-03-25T14:21:48;10.97;;;2.30;;
22967;SDS011;11650;48.106;-1.696;2024-03-25T14:24:13;6.37;;;1.90;;
22967;SDS011;11650;48.106;-1.696;2024-03-25T14:26:39;5.43;;;2.00;;